Kenton, DE (19955)

07:50 EDT le 19 septembre 2014 (GMT -0400)
Northridge | Change Station
CLOSE
Current Station
Stations météorologiques personnelles
Location: Smyrna, DE
Altitude: 26 ft
Stations météo à proximité

Alt. 26 ft 39.25 °N, 75.60 °W | Updated 15 seconds ago

Ciel dégagé
Ciel dégagé
55.9 ° F
Paraît 55.9 ° F
N
0.0
Vent Variable Vent de NE
Gusts 1.0 mph

Aujourd'hui
Haut(e) -- | Bas -- ° F
--% Risque de précip.
Hier
Haut(e) -- | Bas -- ° F
Precip. -- pouce
6:47 AM 7:04 PM
Lune descendante, 19% visible
Pression 30.19 pouce
Visibilité 10.0 Miles terrestres
Nuages Ciel dégagé
Point de rosée 54 ° F
Humidité 93%
Précipitations 0.00 pouce
Profondeur de la couche neigeuse Non disponible.
UV 0 sur 12
Pollen 4.00 sur 12
Qualité de l'air Non disponible.
Flu Activity Non disponible.
METAR KDOV 191058Z AUTO 02007KT 10SM CLR 14/12 A3018 RMK AO2 SLP223 T01390121

More Conditions Fewer Conditions

Pression 30.19 pouce
Visibilité 10.0 Miles terrestres
Nuages Ciel dégagé
Point de rosée 54 ° F
Humidité 93%
Précipitations 0.00 pouce
Profondeur de la couche neigeuse Non disponible.
UV 0 sur 12
Pollen 4.00 sur 12
Qualité de l'air Non disponible.
Flu Activity Non disponible.
METAR KDOV 191058Z AUTO 02007KT 10SM CLR 14/12 A3018 RMK AO2 SLP223 T01390121

More Conditions Fewer Conditions

10-Day Weather Forecast

Almanac

Astronomie

Sep. 19, 2014 Lever Coucher
Temps réel 06:47 EDT 19:04 EDT
Crépuscule civil 06:20 EDT 19:31 EDT
Crépuscule nautique 05:49 EDT 20:02 EDT
Crépuscule astronomique 05:17 EDT 20:34 EDT
Lune 02:32 EDT 16:30 EDT
Durée de lumière visible 13h 10m
Longueur du jour
12h 17m
Tomorrow will be 2m 32s shorter.
Lune descendante, 19% of the Moon is Illuminated
Aujourd'hui
Lune descendante
Sep 24
Nouveau
Oct 1
Premier quartier
Oct 8
Pleine lune
Oct 15
Dernier quartier

Extrêmes aujourd'hui

State Highs State Lows

Community

WunderPhotos

Upload Photos

1,754,597 Photos téléchargées !

Nearby

Épaisseur de neige

Station Depth Altitude
Pas de nouvelles chutes de neige

Activité sismique

Ville Distance Mag. Time & Date
No recent earthquake activity has been reported nearby.
Minimum magnitude displayed is 2.5.

Températures des eaux côtières

Lieu Température
Ship John Shoal, NJ 72.0 ° F
Cape May, NJ 75.0 ° F
Reedy Point, DE 73.0 ° F
Delaware City, DE 72.0 ° F
Marcus Hook, PA 73.0 ° F

Stations météo à proximité